sensor_id;sensor_type;location;lat;lon;timestamp;P1;durP1;ratioP1;P2;durP2;ratioP2
58681;SDS011;44460;40.162;18.294;2023-02-18T00:04:20;79.75;;;46.15;;
58681;SDS011;44460;40.162;18.294;2023-02-18T00:06:46;83.72;;;46.92;;
58681;SDS011;44460;40.162;18.294;2023-02-18T00:09:11;91.43;;;49.45;;
58681;SDS011;44460;40.162;18.294;2023-02-18T00:11:37;116.00;;;54.00;;
58681;SDS011;44460;40.162;18.294;2023-02-18T00:14:03;229.70;;;58.58;;
58681;SDS011;44460;40.162;18.294;2023-02-18T00:16:30;309.38;;;64.78;;
58681;SDS011;44460;40.162;18.294;2023-02-18T00:18:59;201.05;;;53.13;;
58681;SDS011;44460;40.162;18.294;2023-02-18T00:21:25;153.82;;;50.20;;
58681;SDS011;44460;40.162;18.294;2023-02-18T00:23:51;93.78;;;48.28;;
58681;SDS011;44460;40.162;18.294;2023-02-18T00:26:16;77.70;;;48.95;;
58681;SDS011;44460;40.162;18.294;2023-02-18T00:28:43;77.72;;;46.83;;
58681;SDS011;44460;40.162;18.294;2023-02-18T00:31:16;73.65;;;47.15;;
58681;SDS011;44460;40.162;18.294;2023-02-18T00:33:42;71.45;;;46.45;;
58681;SDS011;44460;40.162;18.294;2023-02-18T00:36:09;65.55;;;42.65;;
58681;SDS011;44460;40.162;18.294;2023-02-18T00:38:35;64.43;;;42.03;;
58681;SDS011;44460;40.162;18.294;2023-02-18T00:41:01;61.72;;;42.15;;
58681;SDS011;44460;40.162;18.294;2023-02-18T00:43:27;63.58;;;42.75;;
58681;SDS011;44460;40.162;18.294;2023-02-18T00:45:52;61.70;;;39.72;;
58681;SDS011;44460;40.162;18.294;2023-02-18T00:48:18;62.22;;;39.88;;
58681;SDS011;44460;40.162;18.294;2023-02-18T00:50:43;57.55;;;38.65;;
58681;SDS011;44460;40.162;18.294;2023-02-18T00:53:09;52.28;;;37.30;;
58681;SDS011;44460;40.162;18.294;2023-02-18T00:55:44;52.80;;;35.80;;
58681;SDS011;44460;40.162;18.294;2023-02-18T00:58:10;51.22;;;35.95;;
58681;SDS011;44460;40.162;18.294;2023-02-18T01:00:38;51.38;;;36.38;;
58681;SDS011;44460;40.162;18.294;2023-02-18T01:03:04;67.07;;;38.97;;
58681;SDS011;44460;40.162;18.294;2023-02-18T01:05:35;49.50;;;34.00;;
58681;SDS011;44460;40.162;18.294;2023-02-18T01:08:01;54.28;;;37.10;;
58681;SDS011;44460;40.162;18.294;2023-02-18T01:10:28;54.05;;;37.95;;
58681;SDS011;44460;40.162;18.294;2023-02-18T01:12:53;52.50;;;35.70;;
58681;SDS011;44460;40.162;18.294;2023-02-18T01:15:19;49.60;;;35.35;;
58681;SDS011;44460;40.162;18.294;2023-02-18T01:17:44;52.45;;;36.25;;
58681;SDS011;44460;40.162;18.294;2023-02-18T01:20:10;55.00;;;36.47;;
58681;SDS011;44460;40.162;18.294;2023-02-18T01:22:36;53.53;;;36.47;;
58681;SDS011;44460;40.162;18.294;2023-02-18T01:25:01;52.05;;;35.33;;
58681;SDS011;44460;40.162;18.294;2023-02-18T01:27:27;56.95;;;37.53;;
58681;SDS011;44460;40.162;18.294;2023-02-18T01:29:54;53.85;;;35.00;;
58681;SDS011;44460;40.162;18.294;2023-02-18T01:32:24;54.83;;;35.60;;
58681;SDS011;44460;40.162;18.294;2023-02-18T01:34:53;52.95;;;35.20;;
58681;SDS011;44460;40.162;18.294;2023-02-18T01:37:18;55.08;;;36.60;;
58681;SDS011;44460;40.162;18.294;2023-02-18T01:39:44;55.63;;;35.97;;
58681;SDS011;44460;40.162;18.294;2023-02-18T01:42:20;66.32;;;39.88;;
58681;SDS011;44460;40.162;18.294;2023-02-18T01:44:46;56.97;;;39.15;;
58681;SDS011;44460;40.162;18.294;2023-02-18T01:47:12;53.92;;;37.22;;
58681;SDS011;44460;40.162;18.294;2023-02-18T01:49:38;58.35;;;38.60;;
58681;SDS011;44460;40.162;18.294;2023-02-18T01:52:05;55.05;;;37.33;;
58681;SDS011;44460;40.162;18.294;2023-02-18T01:54:35;57.15;;;38.50;;
58681;SDS011;44460;40.162;18.294;2023-02-18T01:59:49;53.25;;;37.13;;
58681;SDS011;44460;40.162;18.294;2023-02-18T02:02:18;57.78;;;37.22;;
58681;SDS011;44460;40.162;18.294;2023-02-18T02:04:47;58.30;;;39.03;;
58681;SDS011;44460;40.162;18.294;2023-02-18T02:07:14;57.00;;;38.50;;
58681;SDS011;44460;40.162;18.294;2023-02-18T02:09:40;62.88;;;39.63;;
58681;SDS011;44460;40.162;18.294;2023-02-18T02:28:26;59.00;;;39.15;;
58681;SDS011;44460;40.162;18.294;2023-02-18T02:31:09;62.20;;;39.58;;
58681;SDS011;44460;40.162;18.294;2023-02-18T02:36:15;55.13;;;38.80;;
58681;SDS011;44460;40.162;18.294;2023-02-18T02:44:12;55.28;;;39.17;;
58681;SDS011;44460;40.162;18.294;2023-02-18T02:46:40;56.00;;;38.80;;
58681;SDS011;44460;40.162;18.294;2023-02-18T02:51:39;54.15;;;38.22;;
58681;SDS011;44460;40.162;18.294;2023-02-18T02:54:08;63.28;;;42.22;;
58681;SDS011;44460;40.162;18.294;2023-02-18T02:56:33;59.45;;;40.50;;
58681;SDS011;44460;40.162;18.294;2023-02-18T02:59:00;62.97;;;41.47;;
58681;SDS011;44460;40.162;18.294;2023-02-18T03:01:40;67.78;;;44.05;;
58681;SDS011;44460;40.162;18.294;2023-02-18T03:12:23;55.65;;;39.13;;
58681;SDS011;44460;40.162;18.294;2023-02-18T03:14:57;56.67;;;39.28;;
58681;SDS011;44460;40.162;18.294;2023-02-18T03:17:29;56.22;;;38.72;;
58681;SDS011;44460;40.162;18.294;2023-02-18T03:20:56;55.55;;;39.70;;
58681;SDS011;44460;40.162;18.294;2023-02-18T03:22:49;55.33;;;39.78;;
58681;SDS011;44460;40.162;18.294;2023-02-18T03:25:15;60.90;;;43.60;;
58681;SDS011;44460;40.162;18.294;2023-02-18T03:27:48;58.80;;;41.45;;
58681;SDS011;44460;40.162;18.294;2023-02-18T03:30:17;58.85;;;40.95;;
58681;SDS011;44460;40.162;18.294;2023-02-18T03:32:44;66.32;;;42.42;;
58681;SDS011;44460;40.162;18.294;2023-02-18T03:35:13;58.22;;;38.90;;
58681;SDS011;44460;40.162;18.294;2023-02-18T03:37:42;57.88;;;40.70;;
58681;SDS011;44460;40.162;18.294;2023-02-18T03:40:11;58.58;;;38.58;;
58681;SDS011;44460;40.162;18.294;2023-02-18T03:42:37;59.25;;;40.05;;
58681;SDS011;44460;40.162;18.294;2023-02-18T03:45:04;66.60;;;42.10;;
58681;SDS011;44460;40.162;18.294;2023-02-18T03:47:30;54.08;;;38.03;;
58681;SDS011;44460;40.162;18.294;2023-02-18T03:49:55;54.80;;;38.30;;
58681;SDS011;44460;40.162;18.294;2023-02-18T03:52:21;51.35;;;36.40;;
58681;SDS011;44460;40.162;18.294;2023-02-18T03:54:48;53.30;;;36.00;;
58681;SDS011;44460;40.162;18.294;2023-02-18T03:57:13;56.97;;;35.42;;
58681;SDS011;44460;40.162;18.294;2023-02-18T03:59:39;55.15;;;37.85;;
58681;SDS011;44460;40.162;18.294;2023-02-18T04:02:04;51.67;;;35.10;;
58681;SDS011;44460;40.162;18.294;2023-02-18T04:04:30;53.33;;;37.97;;
58681;SDS011;44460;40.162;18.294;2023-02-18T04:06:56;50.42;;;36.35;;
58681;SDS011;44460;40.162;18.294;2023-02-18T04:09:22;51.20;;;35.10;;
58681;SDS011;44460;40.162;18.294;2023-02-18T04:11:48;58.83;;;38.25;;
58681;SDS011;44460;40.162;18.294;2023-02-18T04:14:14;54.47;;;37.03;;
58681;SDS011;44460;40.162;18.294;2023-02-18T04:16:39;59.22;;;38.80;;
58681;SDS011;44460;40.162;18.294;2023-02-18T04:19:05;57.15;;;38.05;;
58681;SDS011;44460;40.162;18.294;2023-02-18T04:21:31;54.92;;;38.63;;
58681;SDS011;44460;40.162;18.294;2023-02-18T04:23:57;56.00;;;37.85;;
58681;SDS011;44460;40.162;18.294;2023-02-18T04:26:22;62.42;;;37.58;;
58681;SDS011;44460;40.162;18.294;2023-02-18T04:28:48;56.92;;;38.67;;
58681;SDS011;44460;40.162;18.294;2023-02-18T04:31:13;60.63;;;37.92;;
58681;SDS011;44460;40.162;18.294;2023-02-18T04:33:39;55.28;;;36.85;;
58681;SDS011;44460;40.162;18.294;2023-02-18T04:36:05;57.03;;;36.80;;
58681;SDS011;44460;40.162;18.294;2023-02-18T04:38:34;55.35;;;35.75;;
58681;SDS011;44460;40.162;18.294;2023-02-18T04:41:00;60.58;;;38.55;;
58681;SDS011;44460;40.162;18.294;2023-02-18T04:43:26;55.80;;;36.40;;
58681;SDS011;44460;40.162;18.294;2023-02-18T04:45:52;56.17;;;36.25;;
58681;SDS011;44460;40.162;18.294;2023-02-18T04:48:17;55.78;;;36.20;;
58681;SDS011;44460;40.162;18.294;2023-02-18T04:50:43;154.48;;;40.35;;
58681;SDS011;44460;40.162;18.294;2023-02-18T04:53:08;134.13;;;35.80;;
58681;SDS011;44460;40.162;18.294;2023-02-18T04:55:33;69.05;;;30.42;;
58681;SDS011;44460;40.162;18.294;2023-02-18T04:57:59;232.05;;;39.22;;
58681;SDS011;44460;40.162;18.294;2023-02-18T05:00:24;114.43;;;31.83;;
58681;SDS011;44460;40.162;18.294;2023-02-18T05:02:51;111.72;;;31.33;;
58681;SDS011;44460;40.162;18.294;2023-02-18T05:05:16;184.63;;;33.00;;
58681;SDS011;44460;40.162;18.294;2023-02-18T05:07:42;67.80;;;27.83;;
58681;SDS011;44460;40.162;18.294;2023-02-18T05:10:09;75.18;;;29.98;;
58681;SDS011;44460;40.162;18.294;2023-02-18T05:12:38;49.35;;;26.70;;
58681;SDS011;44460;40.162;18.294;2023-02-18T05:15:04;60.92;;;27.55;;
58681;SDS011;44460;40.162;18.294;2023-02-18T05:17:30;65.78;;;28.25;;
58681;SDS011;44460;40.162;18.294;2023-02-18T05:19:56;66.07;;;28.80;;
58681;SDS011;44460;40.162;18.294;2023-02-18T05:22:21;69.72;;;28.17;;
58681;SDS011;44460;40.162;18.294;2023-02-18T05:24:47;78.28;;;28.88;;
58681;SDS011;44460;40.162;18.294;2023-02-18T05:27:12;68.78;;;29.08;;
58681;SDS011;44460;40.162;18.294;2023-02-18T05:29:37;95.15;;;32.97;;
58681;SDS011;44460;40.162;18.294;2023-02-18T05:32:03;50.30;;;30.65;;
58681;SDS011;44460;40.162;18.294;2023-02-18T05:34:28;127.68;;;37.38;;
58681;SDS011;44460;40.162;18.294;2023-02-18T05:36:54;52.88;;;31.77;;
58681;SDS011;44460;40.162;18.294;2023-02-18T05:39:22;52.65;;;32.95;;
58681;SDS011;44460;40.162;18.294;2023-02-18T05:41:48;56.53;;;34.20;;
58681;SDS011;44460;40.162;18.294;2023-02-18T05:44:14;60.15;;;34.10;;
58681;SDS011;44460;40.162;18.294;2023-02-18T05:46:54;80.03;;;35.60;;
58681;SDS011;44460;40.162;18.294;2023-02-18T05:49:20;54.67;;;37.13;;
58681;SDS011;44460;40.162;18.294;2023-02-18T05:51:45;57.92;;;37.30;;
58681;SDS011;44460;40.162;18.294;2023-02-18T05:54:11;59.45;;;38.78;;
58681;SDS011;44460;40.162;18.294;2023-02-18T05:56:36;63.65;;;40.65;;
58681;SDS011;44460;40.162;18.294;2023-02-18T05:59:01;60.63;;;39.30;;
58681;SDS011;44460;40.162;18.294;2023-02-18T06:01:27;58.80;;;40.97;;
58681;SDS011;44460;40.162;18.294;2023-02-18T06:03:52;58.97;;;40.53;;
58681;SDS011;44460;40.162;18.294;2023-02-18T06:06:20;58.72;;;41.00;;
58681;SDS011;44460;40.162;18.294;2023-02-18T06:08:46;58.92;;;39.70;;
58681;SDS011;44460;40.162;18.294;2023-02-18T06:11:12;60.33;;;38.25;;
58681;SDS011;44460;40.162;18.294;2023-02-18T06:13:39;58.65;;;38.50;;
58681;SDS011;44460;40.162;18.294;2023-02-18T06:16:07;54.90;;;37.50;;
58681;SDS011;44460;40.162;18.294;2023-02-18T06:18:35;58.83;;;37.30;;
58681;SDS011;44460;40.162;18.294;2023-02-18T06:21:01;52.97;;;34.65;;
58681;SDS011;44460;40.162;18.294;2023-02-18T06:23:26;53.72;;;35.47;;
58681;SDS011;44460;40.162;18.294;2023-02-18T06:25:52;50.78;;;35.83;;
58681;SDS011;44460;40.162;18.294;2023-02-18T06:28:17;56.72;;;35.70;;
58681;SDS011;44460;40.162;18.294;2023-02-18T06:30:43;62.00;;;37.58;;
58681;SDS011;44460;40.162;18.294;2023-02-18T06:33:08;49.13;;;35.03;;
58681;SDS011;44460;40.162;18.294;2023-02-18T06:35:34;49.72;;;33.90;;
58681;SDS011;44460;40.162;18.294;2023-02-18T06:37:59;50.20;;;35.22;;
58681;SDS011;44460;40.162;18.294;2023-02-18T06:40:25;50.40;;;33.38;;
58681;SDS011;44460;40.162;18.294;2023-02-18T06:42:53;53.08;;;34.03;;
58681;SDS011;44460;40.162;18.294;2023-02-18T06:45:22;52.42;;;33.25;;
58681;SDS011;44460;40.162;18.294;2023-02-18T06:47:48;56.28;;;34.05;;
58681;SDS011;44460;40.162;18.294;2023-02-18T06:50:13;48.40;;;32.65;;
58681;SDS011;44460;40.162;18.294;2023-02-18T06:52:39;47.88;;;34.35;;
58681;SDS011;44460;40.162;18.294;2023-02-18T06:55:04;43.60;;;31.25;;
58681;SDS011;44460;40.162;18.294;2023-02-18T06:57:30;50.42;;;31.98;;
58681;SDS011;44460;40.162;18.294;2023-02-18T06:59:55;48.30;;;32.25;;
58681;SDS011;44460;40.162;18.294;2023-02-18T07:02:21;47.17;;;32.40;;
58681;SDS011;44460;40.162;18.294;2023-02-18T07:04:46;48.22;;;33.17;;
58681;SDS011;44460;40.162;18.294;2023-02-18T07:07:12;49.10;;;31.60;;
58681;SDS011;44460;40.162;18.294;2023-02-18T07:09:41;44.70;;;29.83;;
58681;SDS011;44460;40.162;18.294;2023-02-18T07:12:08;55.00;;;34.85;;
58681;SDS011;44460;40.162;18.294;2023-02-18T07:14:34;46.15;;;33.72;;
58681;SDS011;44460;40.162;18.294;2023-02-18T07:16:59;44.60;;;30.83;;
58681;SDS011;44460;40.162;18.294;2023-02-18T07:19:25;47.10;;;32.20;;
58681;SDS011;44460;40.162;18.294;2023-02-18T07:21:50;45.10;;;30.48;;
58681;SDS011;44460;40.162;18.294;2023-02-18T07:24:16;42.40;;;29.00;;
58681;SDS011;44460;40.162;18.294;2023-02-18T07:26:41;52.65;;;37.05;;
58681;SDS011;44460;40.162;18.294;2023-02-18T07:29:07;48.13;;;34.75;;
58681;SDS011;44460;40.162;18.294;2023-02-18T07:31:32;48.55;;;34.90;;
58681;SDS011;44460;40.162;18.294;2023-02-18T07:33:58;40.85;;;28.55;;
58681;SDS011;44460;40.162;18.294;2023-02-18T07:36:23;41.20;;;29.20;;
58681;SDS011;44460;40.162;18.294;2023-02-18T07:38:48;44.75;;;28.75;;
58681;SDS011;44460;40.162;18.294;2023-02-18T07:41:16;43.20;;;27.52;;
58681;SDS011;44460;40.162;18.294;2023-02-18T07:43:42;43.90;;;26.98;;
58681;SDS011;44460;40.162;18.294;2023-02-18T07:46:07;34.80;;;25.05;;
58681;SDS011;44460;40.162;18.294;2023-02-18T07:48:33;34.13;;;23.80;;
58681;SDS011;44460;40.162;18.294;2023-02-18T07:50:58;36.65;;;26.05;;
58681;SDS011;44460;40.162;18.294;2023-02-18T07:53:24;44.47;;;25.45;;
58681;SDS011;44460;40.162;18.294;2023-02-18T07:55:49;34.90;;;25.30;;
58681;SDS011;44460;40.162;18.294;2023-02-18T07:58:19;34.72;;;24.73;;
58681;SDS011;44460;40.162;18.294;2023-02-18T08:00:45;34.38;;;24.90;;
58681;SDS011;44460;40.162;18.294;2023-02-18T08:03:12;35.63;;;25.15;;
58681;SDS011;44460;40.162;18.294;2023-02-18T08:05:38;38.20;;;25.65;;
58681;SDS011;44460;40.162;18.294;2023-02-18T08:08:03;35.17;;;24.48;;
58681;SDS011;44460;40.162;18.294;2023-02-18T08:10:29;34.30;;;23.70;;
58681;SDS011;44460;40.162;18.294;2023-02-18T08:12:54;39.45;;;25.35;;
58681;SDS011;44460;40.162;18.294;2023-02-18T08:15:20;39.17;;;26.42;;
58681;SDS011;44460;40.162;18.294;2023-02-18T08:17:45;36.60;;;24.17;;
58681;SDS011;44460;40.162;18.294;2023-02-18T08:20:11;35.28;;;23.67;;
58681;SDS011;44460;40.162;18.294;2023-02-18T08:22:36;35.75;;;25.08;;
58681;SDS011;44460;40.162;18.294;2023-02-18T08:25:02;38.33;;;25.13;;
58681;SDS011;44460;40.162;18.294;2023-02-18T08:27:28;41.53;;;25.02;;
58681;SDS011;44460;40.162;18.294;2023-02-18T08:29:53;39.97;;;25.25;;
58681;SDS011;44460;40.162;18.294;2023-02-18T08:32:20;37.75;;;22.90;;
58681;SDS011;44460;40.162;18.294;2023-02-18T08:34:45;31.95;;;22.40;;
58681;SDS011;44460;40.162;18.294;2023-02-18T08:37:11;35.30;;;24.75;;
58681;SDS011;44460;40.162;18.294;2023-02-18T08:39:36;32.28;;;22.40;;
58681;SDS011;44460;40.162;18.294;2023-02-18T08:42:02;38.40;;;22.83;;
58681;SDS011;44460;40.162;18.294;2023-02-18T08:44:28;44.28;;;28.05;;
58681;SDS011;44460;40.162;18.294;2023-02-18T08:46:53;32.28;;;22.90;;
58681;SDS011;44460;40.162;18.294;2023-02-18T08:49:19;36.78;;;23.40;;
58681;SDS011;44460;40.162;18.294;2023-02-18T08:51:48;32.40;;;23.83;;
58681;SDS011;44460;40.162;18.294;2023-02-18T08:54:14;30.50;;;23.15;;
58681;SDS011;44460;40.162;18.294;2023-02-18T08:56:39;37.22;;;24.38;;
58681;SDS011;44460;40.162;18.294;2023-02-18T08:59:05;36.63;;;23.02;;
58681;SDS011;44460;40.162;18.294;2023-02-18T09:01:30;33.55;;;22.35;;
58681;SDS011;44460;40.162;18.294;2023-02-18T09:03:56;31.05;;;19.50;;
58681;SDS011;44460;40.162;18.294;2023-02-18T09:06:22;34.35;;;21.90;;
58681;SDS011;44460;40.162;18.294;2023-02-18T09:08:53;28.08;;;20.58;;
58681;SDS011;44460;40.162;18.294;2023-02-18T09:11:19;31.45;;;20.95;;
58681;SDS011;44460;40.162;18.294;2023-02-18T09:13:45;29.35;;;20.83;;
58681;SDS011;44460;40.162;18.294;2023-02-18T09:16:12;30.38;;;19.60;;
58681;SDS011;44460;40.162;18.294;2023-02-18T09:18:40;31.10;;;21.05;;
58681;SDS011;44460;40.162;18.294;2023-02-18T09:21:06;29.45;;;18.30;;
58681;SDS011;44460;40.162;18.294;2023-02-18T09:23:33;26.83;;;18.20;;
58681;SDS011;44460;40.162;18.294;2023-02-18T09:25:59;26.80;;;18.55;;
58681;SDS011;44460;40.162;18.294;2023-02-18T09:28:24;29.33;;;18.80;;
58681;SDS011;44460;40.162;18.294;2023-02-18T09:30:51;29.50;;;20.80;;
58681;SDS011;44460;40.162;18.294;2023-02-18T09:33:17;27.73;;;19.42;;
58681;SDS011;44460;40.162;18.294;2023-02-18T09:35:43;35.50;;;24.67;;
58681;SDS011;44460;40.162;18.294;2023-02-18T09:38:09;37.25;;;28.40;;
58681;SDS011;44460;40.162;18.294;2023-02-18T09:40:36;28.00;;;20.23;;
58681;SDS011;44460;40.162;18.294;2023-02-18T09:43:02;31.52;;;20.55;;
58681;SDS011;44460;40.162;18.294;2023-02-18T09:45:27;33.75;;;20.25;;
58681;SDS011;44460;40.162;18.294;2023-02-18T09:47:53;30.20;;;19.92;;
58681;SDS011;44460;40.162;18.294;2023-02-18T09:50:25;30.95;;;20.70;;
58681;SDS011;44460;40.162;18.294;2023-02-18T09:52:51;25.75;;;17.58;;
58681;SDS011;44460;40.162;18.294;2023-02-18T09:57:46;30.13;;;21.58;;
58681;SDS011;44460;40.162;18.294;2023-02-18T10:00:17;37.05;;;18.75;;
58681;SDS011;44460;40.162;18.294;2023-02-18T10:02:48;31.67;;;19.13;;
58681;SDS011;44460;40.162;18.294;2023-02-18T10:05:14;30.95;;;17.80;;
58681;SDS011;44460;40.162;18.294;2023-02-18T10:07:40;27.48;;;18.75;;
58681;SDS011;44460;40.162;18.294;2023-02-18T10:10:41;32.58;;;17.75;;
58681;SDS011;44460;40.162;18.294;2023-02-18T10:12:57;26.80;;;17.17;;
58681;SDS011;44460;40.162;18.294;2023-02-18T10:15:24;27.27;;;17.60;;
58681;SDS011;44460;40.162;18.294;2023-02-18T10:17:51;32.10;;;20.23;;
58681;SDS011;44460;40.162;18.294;2023-02-18T10:20:19;29.27;;;18.20;;
58681;SDS011;44460;40.162;18.294;2023-02-18T10:22:45;22.88;;;16.38;;
58681;SDS011;44460;40.162;18.294;2023-02-18T10:25:14;26.05;;;17.52;;
58681;SDS011;44460;40.162;18.294;2023-02-18T10:27:41;24.60;;;17.40;;
58681;SDS011;44460;40.162;18.294;2023-02-18T10:32:54;25.45;;;15.82;;
58681;SDS011;44460;40.162;18.294;2023-02-18T10:37:53;25.83;;;16.42;;
58681;SDS011;44460;40.162;18.294;2023-02-18T10:45:20;29.83;;;17.52;;
58681;SDS011;44460;40.162;18.294;2023-02-18T10:50:34;24.10;;;18.05;;
58681;SDS011;44460;40.162;18.294;2023-02-18T10:53:18;25.85;;;16.98;;
58681;SDS011;44460;40.162;18.294;2023-02-18T10:55:46;34.53;;;19.10;;
58681;SDS011;44460;40.162;18.294;2023-02-18T10:58:31;34.75;;;21.08;;
58681;SDS011;44460;40.162;18.294;2023-02-18T11:00:57;25.67;;;17.10;;
58681;SDS011;44460;40.162;18.294;2023-02-18T11:03:42;26.80;;;17.70;;
58681;SDS011;44460;40.162;18.294;2023-02-18T11:06:43;27.58;;;17.85;;
58681;SDS011;44460;40.162;18.294;2023-02-18T11:09:00;27.52;;;17.85;;
58681;SDS011;44460;40.162;18.294;2023-02-18T11:11:28;29.05;;;17.40;;
58681;SDS011;44460;40.162;18.294;2023-02-18T11:13:56;40.53;;;18.15;;
58681;SDS011;44460;40.162;18.294;2023-02-18T11:16:23;31.80;;;19.30;;
58681;SDS011;44460;40.162;18.294;2023-02-18T11:18:48;30.17;;;18.00;;
58681;SDS011;44460;40.162;18.294;2023-02-18T11:23:55;30.98;;;19.05;;
58681;SDS011;44460;40.162;18.294;2023-02-18T11:26:24;27.80;;;20.27;;
58681;SDS011;44460;40.162;18.294;2023-02-18T11:28:51;27.52;;;19.02;;
58681;SDS011;44460;40.162;18.294;2023-02-18T11:31:21;34.15;;;19.25;;
58681;SDS011;44460;40.162;18.294;2023-02-18T11:33:49;30.55;;;20.23;;
58681;SDS011;44460;40.162;18.294;2023-02-18T11:38:42;35.65;;;20.75;;
58681;SDS011;44460;40.162;18.294;2023-02-18T11:41:09;25.60;;;18.13;;
58681;SDS011;44460;40.162;18.294;2023-02-18T11:43:36;26.03;;;17.53;;
58681;SDS011;44460;40.162;18.294;2023-02-18T11:46:10;31.52;;;17.77;;
58681;SDS011;44460;40.162;18.294;2023-02-18T11:48:36;24.85;;;16.35;;
58681;SDS011;44460;40.162;18.294;2023-02-18T11:51:01;29.25;;;18.35;;
58681;SDS011;44460;40.162;18.294;2023-02-18T11:53:28;26.05;;;18.52;;
58681;SDS011;44460;40.162;18.294;2023-02-18T11:55:56;21.45;;;15.15;;
58681;SDS011;44460;40.162;18.294;2023-02-18T11:58:21;24.90;;;16.50;;
58681;SDS011;44460;40.162;18.294;2023-02-18T12:00:47;24.40;;;17.35;;
58681;SDS011;44460;40.162;18.294;2023-02-18T12:05:59;25.70;;;15.00;;
58681;SDS011;44460;40.162;18.294;2023-02-18T12:08:30;21.38;;;14.63;;
58681;SDS011;44460;40.162;18.294;2023-02-18T12:10:59;21.73;;;13.30;;
58681;SDS011;44460;40.162;18.294;2023-02-18T12:13:27;22.52;;;13.43;;
58681;SDS011;44460;40.162;18.294;2023-02-18T12:18:45;25.33;;;16.15;;
58681;SDS011;44460;40.162;18.294;2023-02-18T12:21:35;22.33;;;13.90;;
58681;SDS011;44460;40.162;18.294;2023-02-18T12:29:16;25.75;;;16.08;;
58681;SDS011;44460;40.162;18.294;2023-02-18T12:41:52;26.77;;;15.18;;
58681;SDS011;44460;40.162;18.294;2023-02-18T12:47:06;33.83;;;16.38;;
58681;SDS011;44460;40.162;18.294;2023-02-18T12:52:31;25.55;;;14.60;;
58681;SDS011;44460;40.162;18.294;2023-02-18T12:55:22;21.90;;;14.27;;
58681;SDS011;44460;40.162;18.294;2023-02-18T13:15:47;25.60;;;15.93;;
58681;SDS011;44460;40.162;18.294;2023-02-18T13:18:27;34.22;;;18.23;;
58681;SDS011;44460;40.162;18.294;2023-02-18T13:20:55;28.80;;;17.50;;
58681;SDS011;44460;40.162;18.294;2023-02-18T13:23:23;33.42;;;19.42;;
58681;SDS011;44460;40.162;18.294;2023-02-18T13:25:51;29.80;;;19.58;;
58681;SDS011;44460;40.162;18.294;2023-02-18T13:33:31;25.25;;;17.02;;
58681;SDS011;44460;40.162;18.294;2023-02-18T13:36:01;24.75;;;17.45;;
58681;SDS011;44460;40.162;18.294;2023-02-18T13:41:12;24.90;;;17.30;;
58681;SDS011;44460;40.162;18.294;2023-02-18T13:43:38;33.20;;;20.25;;
58681;SDS011;44460;40.162;18.294;2023-02-18T13:48:29;32.05;;;18.35;;
58681;SDS011;44460;40.162;18.294;2023-02-18T13:50:59;28.50;;;16.70;;
58681;SDS011;44460;40.162;18.294;2023-02-18T13:53:27;27.25;;;19.98;;
58681;SDS011;44460;40.162;18.294;2023-02-18T13:56:00;27.85;;;19.25;;
58681;SDS011;44460;40.162;18.294;2023-02-18T13:58:43;27.65;;;18.45;;
58681;SDS011;44460;40.162;18.294;2023-02-18T14:01:20;29.95;;;15.85;;
58681;SDS011;44460;40.162;18.294;2023-02-18T14:08:39;23.30;;;17.17;;
58681;SDS011;44460;40.162;18.294;2023-02-18T14:13:40;25.67;;;18.73;;
58681;SDS011;44460;40.162;18.294;2023-02-18T14:16:06;25.45;;;15.57;;
58681;SDS011;44460;40.162;18.294;2023-02-18T14:18:36;26.38;;;17.02;;
58681;SDS011;44460;40.162;18.294;2023-02-18T14:21:19;27.92;;;16.48;;
58681;SDS011;44460;40.162;18.294;2023-02-18T14:26:17;27.00;;;18.08;;
58681;SDS011;44460;40.162;18.294;2023-02-18T14:33:36;23.02;;;15.90;;
58681;SDS011;44460;40.162;18.294;2023-02-18T14:36:16;28.33;;;17.02;;
58681;SDS011;44460;40.162;18.294;2023-02-18T14:38:49;28.55;;;17.45;;
58681;SDS011;44460;40.162;18.294;2023-02-18T14:41:38;30.35;;;17.52;;
58681;SDS011;44460;40.162;18.294;2023-02-18T14:51:42;26.67;;;18.30;;
58681;SDS011;44460;40.162;18.294;2023-02-18T14:54:12;24.60;;;15.85;;
58681;SDS011;44460;40.162;18.294;2023-02-18T14:56:46;23.85;;;17.05;;
58681;SDS011;44460;40.162;18.294;2023-02-18T14:59:15;50.15;;;27.02;;
58681;SDS011;44460;40.162;18.294;2023-02-18T15:01:41;47.58;;;24.27;;
58681;SDS011;44460;40.162;18.294;2023-02-18T15:04:11;41.60;;;21.60;;
58681;SDS011;44460;40.162;18.294;2023-02-18T15:06:37;29.70;;;18.73;;
58681;SDS011;44460;40.162;18.294;2023-02-18T15:09:12;39.17;;;23.02;;
58681;SDS011;44460;40.162;18.294;2023-02-18T15:11:42;28.88;;;15.85;;
58681;SDS011;44460;40.162;18.294;2023-02-18T15:14:10;21.58;;;14.00;;
58681;SDS011;44460;40.162;18.294;2023-02-18T15:16:36;23.92;;;13.52;;
58681;SDS011;44460;40.162;18.294;2023-02-18T15:19:03;21.50;;;14.43;;
58681;SDS011;44460;40.162;18.294;2023-02-18T15:21:36;25.57;;;13.83;;
58681;SDS011;44460;40.162;18.294;2023-02-18T15:26:31;23.85;;;13.18;;
58681;SDS011;44460;40.162;18.294;2023-02-18T15:28:58;20.63;;;13.35;;
58681;SDS011;44460;40.162;18.294;2023-02-18T15:31:24;21.08;;;13.45;;
58681;SDS011;44460;40.162;18.294;2023-02-18T15:33:50;29.38;;;12.80;;
58681;SDS011;44460;40.162;18.294;2023-02-18T15:36:16;25.38;;;13.57;;
58681;SDS011;44460;40.162;18.294;2023-02-18T15:38:41;25.08;;;12.95;;
58681;SDS011;44460;40.162;18.294;2023-02-18T15:41:12;22.63;;;12.50;;
58681;SDS011;44460;40.162;18.294;2023-02-18T15:43:38;21.08;;;11.80;;
58681;SDS011;44460;40.162;18.294;2023-02-18T15:46:07;18.63;;;11.35;;
58681;SDS011;44460;40.162;18.294;2023-02-18T15:48:38;18.45;;;11.75;;
58681;SDS011;44460;40.162;18.294;2023-02-18T15:51:09;17.55;;;11.50;;
58681;SDS011;44460;40.162;18.294;2023-02-18T15:53:37;16.35;;;10.48;;
58681;SDS011;44460;40.162;18.294;2023-02-18T15:56:05;20.65;;;11.48;;
58681;SDS011;44460;40.162;18.294;2023-02-18T15:58:31;23.52;;;12.43;;
58681;SDS011;44460;40.162;18.294;2023-02-18T16:01:03;16.98;;;11.32;;
58681;SDS011;44460;40.162;18.294;2023-02-18T16:03:30;23.10;;;12.32;;
58681;SDS011;44460;40.162;18.294;2023-02-18T16:06:18;20.05;;;12.20;;
58681;SDS011;44460;40.162;18.294;2023-02-18T16:08:41;21.60;;;11.77;;
58681;SDS011;44460;40.162;18.294;2023-02-18T16:11:11;20.08;;;12.23;;
58681;SDS011;44460;40.162;18.294;2023-02-18T16:13:43;23.05;;;12.70;;
58681;SDS011;44460;40.162;18.294;2023-02-18T16:18:47;26.73;;;13.90;;
58681;SDS011;44460;40.162;18.294;2023-02-18T16:23:42;21.67;;;14.00;;
58681;SDS011;44460;40.162;18.294;2023-02-18T16:26:18;23.73;;;15.10;;
58681;SDS011;44460;40.162;18.294;2023-02-18T16:28:45;28.15;;;16.52;;
58681;SDS011;44460;40.162;18.294;2023-02-18T16:31:10;26.63;;;17.13;;
58681;SDS011;44460;40.162;18.294;2023-02-18T16:33:36;31.02;;;16.42;;
58681;SDS011;44460;40.162;18.294;2023-02-18T16:36:01;39.15;;;19.30;;
58681;SDS011;44460;40.162;18.294;2023-02-18T16:38:27;29.23;;;19.20;;